createdAt,value
2023-03-25T15:32:29.678Z,1.15
2023-03-25T15:35:32.588Z,0.90
2023-03-25T15:38:57.510Z,1.05
2023-03-25T15:42:45.039Z,0.90
2023-03-25T15:46:09.198Z,1.00
2023-03-25T15:49:40.782Z,1.20
2023-03-25T15:53:19.768Z,0.98
2023-03-25T15:56:29.336Z,1.20
2023-03-25T15:59:43.179Z,1.50
2023-03-25T16:02:49.686Z,1.33
2023-03-25T16:05:57.998Z,0.90
2023-03-25T16:09:03.074Z,1.10
2023-03-25T16:12:10.089Z,0.80
2023-03-25T16:15:18.299Z,0.90
2023-03-25T16:18:23.390Z,0.82
2023-03-25T16:21:29.996Z,0.95
2023-03-25T16:24:34.186Z,1.00
2023-03-25T16:27:42.068Z,1.00
2023-03-25T16:30:56.219Z,0.90
2023-03-25T16:34:00.476Z,1.12
2023-03-25T16:37:04.483Z,1.17
2023-03-25T16:40:07.550Z,1.05
2023-03-25T16:43:17.652Z,1.37
2023-03-25T16:46:21.342Z,1.20
2023-03-25T16:49:31.878Z,0.65
2023-03-25T16:52:35.161Z,0.70
2023-03-25T16:55:49.042Z,0.80
2023-03-25T16:58:59.176Z,1.10
2023-03-25T17:02:03.528Z,0.90
2023-03-25T17:05:16.164Z,1.98
2023-03-25T17:08:21.613Z,1.25
2023-03-25T17:11:27.868Z,1.20
2023-03-25T17:14:37.020Z,1.50
2023-03-25T17:17:51.687Z,1.90
2023-03-25T17:20:58.116Z,1.35
2023-03-25T17:24:05.744Z,1.08
2023-03-25T17:27:20.985Z,1.75
2023-03-25T17:30:29.046Z,1.30
2023-03-25T17:33:36.006Z,1.50
2023-03-25T17:36:41.500Z,1.80
2023-03-25T17:39:48.883Z,1.70
2023-03-25T17:42:56.418Z,1.80
2023-03-25T17:46:00.753Z,1.80
2023-03-25T17:49:18.022Z,1.93
2023-03-25T17:52:20.840Z,1.85
2023-03-25T17:55:23.396Z,1.45
2023-03-25T17:58:26.483Z,2.50
2023-03-25T18:01:30.963Z,2.28
2023-03-25T18:04:33.670Z,1.93
2023-03-25T18:07:36.325Z,2.00
2023-03-25T18:10:39.582Z,2.53
2023-03-25T18:13:48.206Z,6.53
2023-03-25T18:16:51.926Z,2.15
2023-03-25T18:19:54.308Z,2.47
2023-03-25T18:22:57.151Z,2.58
2023-03-25T18:26:00.016Z,3.72
2023-03-25T18:29:05.286Z,2.30
2023-03-25T18:32:07.804Z,1.83
2023-03-25T18:35:10.484Z,2.30
2023-03-25T18:38:24.613Z,2.37
2023-03-25T18:41:27.392Z,2.53
2023-03-25T18:44:30.814Z,2.25
2023-03-25T18:47:33.524Z,2.42
2023-03-25T18:50:38.734Z,2.77
2023-03-25T18:53:41.767Z,2.10
2023-03-25T18:56:44.562Z,2.33
2023-03-25T18:59:47.285Z,2.22
2023-03-25T19:02:53.007Z,2.33
2023-03-25T19:05:57.029Z,2.43
2023-03-25T19:08:59.421Z,3.22
2023-03-25T19:12:02.193Z,2.20
2023-03-25T19:15:04.968Z,2.17
2023-03-25T19:18:07.669Z,2.05
2023-03-25T19:21:15.076Z,2.57
2023-03-25T19:24:17.700Z,2.75
2023-03-25T19:27:20.218Z,2.83
2023-03-25T19:30:24.540Z,2.62
2023-03-25T19:33:31.057Z,2.70
2023-03-25T19:36:35.095Z,2.60
2023-03-25T19:39:37.433Z,2.40
2023-03-25T19:42:40.160Z,2.40
2023-03-25T19:45:42.469Z,2.53
2023-03-25T19:48:46.369Z,2.10
2023-03-25T19:51:48.810Z,2.30
2023-03-25T19:54:51.600Z,2.37
2023-03-25T19:57:54.459Z,1.52
2023-03-25T20:00:57.216Z,2.00
2023-03-25T20:03:59.821Z,2.10
2023-03-25T20:07:02.765Z,2.37
2023-03-25T20:10:18.966Z,1.40
2023-03-25T20:13:22.577Z,1.40
2023-03-25T20:16:25.768Z,1.50
2023-03-25T20:19:28.128Z,1.50
2023-03-25T20:22:31.760Z,1.43
2023-03-25T20:25:34.119Z,1.90
2023-03-25T20:28:37.304Z,1.00
2023-03-25T20:31:39.764Z,1.10
2023-03-25T20:34:42.977Z,0.70
2023-03-25T20:37:48.734Z,0.60
2023-03-25T20:40:54.549Z,1.00
2023-03-25T20:43:56.959Z,0.60
2023-03-25T20:47:00.548Z,0.90
2023-03-25T20:50:03.537Z,0.50
2023-03-25T20:53:06.193Z,0.70
2023-03-25T20:56:08.676Z,0.70
2023-03-25T20:59:14.001Z,0.90
2023-03-25T21:02:17.027Z,0.80
2023-03-25T21:05:19.907Z,0.77
2023-03-25T21:08:22.263Z,1.20
2023-03-25T21:11:24.850Z,1.20
2023-03-25T21:14:27.580Z,1.27
2023-03-25T21:17:30.364Z,1.33
2023-03-25T21:20:33.729Z,1.20
2023-03-25T21:23:36.907Z,0.60
2023-03-25T21:26:39.498Z,0.70
2023-03-25T21:29:42.086Z,0.50
2023-03-25T21:32:44.535Z,0.52
2023-03-25T21:35:53.766Z,0.80
2023-03-25T21:38:59.682Z,0.60
2023-03-25T21:42:10.498Z,0.70
2023-03-25T21:45:16.520Z,0.40
2023-03-25T21:48:21.507Z,0.50
2023-03-25T21:51:26.582Z,0.60
2023-03-25T21:54:30.663Z,1.03
2023-03-25T21:57:39.051Z,0.70
2023-03-25T22:00:42.139Z,0.80
2023-03-25T22:03:47.789Z,0.80
2023-03-25T22:06:50.468Z,0.90
2023-03-25T22:09:53.156Z,0.80
2023-03-25T22:12:55.724Z,0.70
2023-03-25T22:15:58.840Z,0.57
2023-03-25T22:19:01.932Z,0.80
2023-03-25T22:22:04.753Z,0.77
2023-03-25T22:25:08.250Z,0.50
2023-03-25T22:28:11.332Z,0.80
2023-03-25T22:31:19.775Z,0.60
2023-03-25T22:34:22.461Z,0.70
2023-03-25T22:37:24.766Z,0.70
2023-03-25T22:40:28.870Z,0.70
2023-03-25T22:43:32.643Z,0.80
2023-03-25T22:46:37.353Z,0.50
2023-03-25T22:49:39.645Z,0.80
2023-03-25T22:52:42.335Z,0.60
2023-03-25T22:55:54.884Z,0.70
2023-03-25T22:58:57.891Z,0.60
2023-03-25T23:02:00.816Z,0.50
2023-03-25T23:05:03.922Z,0.65
2023-03-25T23:08:07.650Z,0.50
2023-03-25T23:11:17.302Z,0.60
2023-03-25T23:14:19.767Z,0.50
2023-03-25T23:17:26.394Z,0.70
2023-03-25T23:20:29.430Z,0.57
2023-03-25T23:23:32.949Z,0.55
2023-03-25T23:26:38.943Z,0.50
2023-03-25T23:29:41.916Z,0.50
2023-03-25T23:32:44.388Z,0.50
2023-03-25T23:35:47.063Z,0.60
2023-03-25T23:38:49.973Z,0.40
2023-03-25T23:41:53.727Z,0.50
2023-03-25T23:44:56.029Z,0.40
2023-03-25T23:47:58.751Z,0.47
2023-03-25T23:51:01.093Z,0.70
2023-03-25T23:54:05.911Z,0.62
2023-03-25T23:57:08.300Z,0.40
